createdAt,value
2023-04-04T00:00:43.961Z,2.40
2023-04-04T00:03:11.813Z,2.65
2023-04-04T00:05:40.067Z,2.53
2023-04-04T00:08:07.811Z,2.33
2023-04-04T00:10:35.473Z,2.75
2023-04-04T00:13:05.826Z,2.10
2023-04-04T00:15:34.619Z,2.25
2023-04-04T00:18:02.532Z,2.10
2023-04-04T00:20:30.741Z,2.03
2023-04-04T00:22:58.932Z,2.60
2023-04-04T00:25:26.604Z,2.40
2023-04-04T00:27:54.601Z,2.55
2023-04-04T00:30:24.854Z,2.38
2023-04-04T00:32:52.793Z,2.20
2023-04-04T00:35:21.031Z,2.22
2023-04-04T00:37:48.712Z,2.55
2023-04-04T00:40:16.427Z,2.28
2023-04-04T00:42:44.349Z,2.70
2023-04-04T00:45:12.550Z,2.67
2023-04-04T00:47:45.231Z,2.75
2023-04-04T00:50:12.969Z,2.78
2023-04-04T00:52:41.030Z,2.30
2023-04-04T00:55:10.358Z,2.40
2023-04-04T00:57:38.099Z,2.78
2023-04-04T01:00:07.662Z,2.40
2023-04-04T01:02:37.119Z,3.50
2023-04-04T01:05:07.439Z,3.83
2023-04-04T01:07:37.243Z,3.17
2023-04-04T01:10:06.450Z,2.97
2023-04-04T01:12:35.058Z,3.10
2023-04-04T01:15:02.955Z,3.10
2023-04-04T01:17:31.248Z,4.13
2023-04-04T01:20:03.928Z,4.00
2023-04-04T01:22:34.681Z,4.82
2023-04-04T01:25:03.123Z,4.20
2023-04-04T01:27:32.162Z,4.00
2023-04-04T01:30:00.250Z,3.83
2023-04-04T01:32:33.312Z,4.15
2023-04-04T01:35:14.955Z,3.95
2023-04-04T01:37:50.406Z,3.47
2023-04-04T01:40:22.127Z,3.75
2023-04-04T01:42:52.912Z,3.33
2023-04-04T01:45:23.255Z,3.60
2023-04-04T01:47:51.020Z,3.35
2023-04-04T01:50:18.792Z,3.45
2023-04-04T01:52:47.318Z,3.25
2023-04-04T01:55:15.139Z,3.20
2023-04-04T01:57:42.907Z,2.83
2023-04-04T02:00:13.641Z,2.72
2023-04-04T02:02:41.370Z,3.08
2023-04-04T02:05:09.640Z,3.17
2023-04-04T02:07:37.749Z,3.15
2023-04-04T02:10:06.315Z,3.50
2023-04-04T02:12:34.213Z,3.35
2023-04-04T02:15:02.196Z,3.28
2023-04-04T02:17:31.284Z,3.60
2023-04-04T02:19:58.972Z,3.13
2023-04-04T02:22:26.917Z,3.15
2023-04-04T02:24:54.768Z,2.83
2023-04-04T02:27:22.415Z,2.67
2023-04-04T02:29:50.430Z,3.58
2023-04-04T02:32:18.353Z,3.40
2023-04-04T02:34:47.606Z,2.90
2023-04-04T02:37:15.449Z,3.40
2023-04-04T02:39:43.105Z,3.00
2023-04-04T02:42:10.747Z,2.88
2023-04-04T02:44:38.680Z,3.05
2023-04-04T02:47:07.286Z,2.60
2023-04-04T02:49:35.765Z,2.53
2023-04-04T02:52:05.096Z,2.20
2023-04-04T02:54:33.052Z,2.03
2023-04-04T02:57:00.901Z,2.35
2023-04-04T02:59:29.306Z,2.50
2023-04-04T03:01:57.038Z,1.80
2023-04-04T03:04:24.932Z,1.77
2023-04-04T03:06:52.884Z,2.10
2023-04-04T03:09:21.948Z,2.22
2023-04-04T03:11:51.501Z,2.47
2023-04-04T03:14:19.403Z,2.08
2023-04-04T03:16:49.838Z,2.35
2023-04-04T03:19:17.594Z,2.00
2023-04-04T03:21:45.771Z,2.28
2023-04-04T03:24:13.796Z,2.10
2023-04-04T03:26:43.097Z,2.30
2023-04-04T03:29:11.285Z,2.10
2023-04-04T03:31:38.999Z,2.50
2023-04-04T03:34:06.708Z,2.95
2023-04-04T03:36:34.760Z,2.78
2023-04-04T03:39:02.865Z,2.40
2023-04-04T03:41:30.546Z,2.80
2023-04-04T03:43:59.924Z,2.55
2023-04-04T03:46:27.703Z,2.88
2023-04-04T03:48:55.571Z,2.70
2023-04-04T03:51:26.584Z,2.80
2023-04-04T03:53:54.540Z,2.80
2023-04-04T03:56:22.220Z,3.00
2023-04-04T03:58:50.273Z,3.00
2023-04-04T04:01:19.298Z,2.58
2023-04-04T04:03:47.023Z,2.90
2023-04-04T04:06:15.095Z,3.15
2023-04-04T04:08:42.789Z,2.67
2023-04-04T04:11:10.483Z,2.70
2023-04-04T04:13:39.260Z,3.10
2023-04-04T04:16:07.624Z,3.10
2023-04-04T04:18:37.369Z,2.72
2023-04-04T04:21:05.485Z,2.72
2023-04-04T04:23:33.321Z,2.40
2023-04-04T04:26:00.966Z,2.83
2023-04-04T04:28:33.539Z,2.50
2023-04-04T04:31:05.688Z,2.75
2023-04-04T04:33:33.764Z,2.30
2023-04-04T04:36:04.728Z,2.80
2023-04-04T04:38:32.507Z,2.30
2023-04-04T04:41:00.609Z,2.47
2023-04-04T04:43:28.444Z,2.67
2023-04-04T04:45:56.632Z,3.00
2023-04-04T04:48:24.881Z,2.78
2023-04-04T04:50:52.545Z,2.92
2023-04-04T04:53:21.633Z,3.25
2023-04-04T04:55:51.475Z,2.88
2023-04-04T04:58:21.192Z,2.97
2023-04-04T05:03:16.892Z,3.30
2023-04-04T05:05:44.734Z,2.90
2023-04-04T05:08:12.409Z,2.65
2023-04-04T05:10:42.011Z,2.97
2023-04-04T05:13:10.608Z,3.03
2023-04-04T05:15:38.705Z,3.05
2023-04-04T05:18:06.812Z,3.00
2023-04-04T05:20:34.483Z,3.00
2023-04-04T05:23:02.171Z,2.80
2023-04-04T05:25:30.253Z,2.95
2023-04-04T05:27:59.280Z,3.15
2023-04-04T05:30:26.960Z,3.22
2023-04-04T05:32:55.846Z,2.88
2023-04-04T05:35:23.671Z,2.90
2023-04-04T05:37:51.360Z,2.80
2023-04-04T05:40:19.564Z,2.70
2023-04-04T05:42:55.266Z,3.40
2023-04-04T05:45:24.581Z,2.50
2023-04-04T05:47:52.534Z,3.55
2023-04-04T05:50:20.300Z,3.20
2023-04-04T05:52:48.378Z,2.83
2023-04-04T05:55:16.784Z,3.13
2023-04-04T05:57:49.719Z,3.25
2023-04-04T06:00:19.428Z,2.90
2023-04-04T06:02:48.637Z,3.00
2023-04-04T06:05:17.094Z,2.90
2023-04-04T06:07:44.756Z,2.78
2023-04-04T06:10:12.560Z,3.30
2023-04-04T06:12:40.667Z,3.10
2023-04-04T06:15:09.267Z,3.30
2023-04-04T06:17:37.100Z,2.92
2023-04-04T06:20:08.728Z,3.00
2023-04-04T06:22:36.421Z,3.03
2023-04-04T06:25:04.408Z,3.15
2023-04-04T06:27:32.444Z,3.20
2023-04-04T06:30:00.280Z,3.75
2023-04-04T06:32:28.040Z,3.13
2023-04-04T06:34:56.228Z,3.00
2023-04-04T06:37:25.397Z,2.85
2023-04-04T06:39:53.703Z,3.20
2023-04-04T06:42:21.765Z,3.17
2023-04-04T06:44:49.407Z,3.13
2023-04-04T06:47:17.064Z,3.22
2023-04-04T06:49:45.051Z,3.10
2023-04-04T06:52:12.948Z,3.00
2023-04-04T06:54:42.109Z,2.75
2023-04-04T06:57:10.221Z,3.38
2023-04-04T06:59:38.300Z,3.25
2023-04-04T07:02:05.999Z,2.90
2023-04-04T07:04:35.594Z,2.70
2023-04-04T07:07:03.622Z,3.05
2023-04-04T07:09:31.428Z,3.70
2023-04-04T07:12:01.330Z,3.00
2023-04-04T07:14:29.112Z,2.92
2023-04-04T07:16:58.270Z,3.28
2023-04-04T07:19:29.137Z,3.22
2023-04-04T07:21:57.462Z,2.72
2023-04-04T07:24:25.130Z,3.30
2023-04-04T07:26:53.274Z,2.50
2023-04-04T07:29:22.454Z,2.60
2023-04-04T07:31:50.165Z,2.63
2023-04-04T07:34:18.682Z,2.30
2023-04-04T07:36:46.701Z,2.90
2023-04-04T07:39:14.379Z,2.63
2023-04-04T07:41:42.755Z,2.70
2023-04-04T07:44:10.709Z,2.40
2023-04-04T07:46:40.609Z,2.30
2023-04-04T07:51:56.959Z,2.23
2023-04-04T07:54:25.360Z,2.25
2023-04-04T07:56:54.110Z,2.60
2023-04-04T07:59:21.993Z,2.13
2023-04-04T08:01:51.708Z,2.40
2023-04-04T08:06:47.494Z,2.05
2023-04-04T08:09:15.707Z,2.25
2023-04-04T08:11:43.723Z,2.80
2023-04-04T08:14:11.976Z,2.50
2023-04-04T08:16:40.200Z,2.15
2023-04-04T08:19:09.804Z,2.60
2023-04-04T08:24:05.577Z,2.20
2023-04-04T08:26:33.243Z,2.38
2023-04-04T08:29:01.482Z,2.38
2023-04-04T08:31:30.196Z,2.58
2023-04-04T08:33:57.907Z,2.40
2023-04-04T08:36:26.968Z,2.80
2023-04-04T08:38:55.073Z,2.58
2023-04-04T08:41:22.955Z,2.58
2023-04-04T08:43:54.490Z,2.95
2023-04-04T08:46:23.406Z,2.38
2023-04-04T08:48:53.085Z,2.15
2023-04-04T08:51:21.467Z,2.28
2023-04-04T08:53:51.627Z,2.50
2023-04-04T08:56:19.587Z,2.50
2023-04-04T08:58:47.490Z,2.60
2023-04-04T09:01:16.977Z,2.28
2023-04-04T09:03:45.393Z,2.40
2023-04-04T09:06:14.729Z,2.45
2023-04-04T09:08:44.318Z,4.45
2023-04-04T09:11:14.673Z,2.75
2023-04-04T09:13:46.374Z,2.40
2023-04-04T09:16:14.137Z,2.67
2023-04-04T09:18:41.992Z,2.58
2023-04-04T09:21:14.141Z,2.53
2023-04-04T09:23:41.836Z,2.60
2023-04-04T09:26:09.510Z,2.60
2023-04-04T09:28:39.204Z,2.72
2023-04-04T09:33:40.309Z,2.70
2023-04-04T09:36:10.389Z,2.28
2023-04-04T09:38:40.874Z,2.47
2023-04-04T09:41:09.704Z,2.70
2023-04-04T09:43:41.437Z,2.40
2023-04-04T09:46:09.236Z,2.63
2023-04-04T09:48:37.563Z,2.50
2023-04-04T09:51:07.245Z,2.90
2023-04-04T09:53:39.810Z,3.05
2023-04-04T09:56:08.811Z,2.53
2023-04-04T09:58:39.116Z,2.42
2023-04-04T10:01:14.430Z,2.65
2023-04-04T10:03:42.196Z,2.50
2023-04-04T10:06:11.211Z,2.80
2023-04-04T10:08:43.624Z,2.72
2023-04-04T10:11:12.679Z,2.95
2023-04-04T10:13:42.281Z,2.97
2023-04-04T10:16:12.409Z,2.60
2023-04-04T10:18:41.748Z,2.65
2023-04-04T10:23:43.341Z,2.63
2023-04-04T10:26:12.585Z,2.95
2023-04-04T10:28:40.551Z,2.90
2023-04-04T10:31:16.700Z,2.80
2023-04-04T10:33:53.510Z,3.58
2023-04-04T10:36:24.605Z,3.10
2023-04-04T10:39:04.791Z,2.90
2023-04-04T10:41:34.082Z,2.63
2023-04-04T10:44:10.623Z,3.03
2023-04-04T10:46:43.106Z,3.00
2023-04-04T10:49:13.115Z,2.97
2023-04-04T10:51:53.045Z,2.90
2023-04-04T10:54:23.950Z,3.20
2023-04-04T10:56:52.323Z,2.90
2023-04-04T10:59:20.131Z,3.40
2023-04-04T11:01:50.276Z,3.40
2023-04-04T11:04:21.405Z,3.20
2023-04-04T11:07:12.710Z,3.22
2023-04-04T11:09:51.365Z,3.65
2023-04-04T11:12:24.277Z,3.10
2023-04-04T11:15:10.785Z,3.20
2023-04-04T11:18:05.987Z,3.17
2023-04-04T11:20:45.553Z,3.15
2023-04-04T11:23:20.074Z,3.85
2023-04-04T11:25:54.955Z,3.38
2023-04-04T11:28:46.712Z,3.78
2023-04-04T11:31:29.556Z,3.15
2023-04-04T11:34:04.462Z,3.72
2023-04-04T11:36:53.381Z,4.10
2023-04-04T11:39:28.904Z,3.40
2023-04-04T11:42:03.435Z,3.53
2023-04-04T11:44:33.970Z,3.35
2023-04-04T11:47:05.251Z,3.60
2023-04-04T11:49:37.925Z,3.30
2023-04-04T11:52:10.021Z,3.45
2023-04-04T11:54:39.451Z,3.42
2023-04-04T11:57:08.166Z,4.10
2023-04-04T11:59:41.641Z,3.33
2023-04-04T12:02:11.154Z,3.10
2023-04-04T12:04:42.819Z,3.10
2023-04-04T12:07:15.540Z,2.90
2023-04-04T12:09:43.593Z,3.28
2023-04-04T12:12:14.293Z,3.10
2023-04-04T12:14:42.500Z,3.30
2023-04-04T12:17:10.285Z,3.05
2023-04-04T12:19:39.616Z,3.05
2023-04-04T12:22:08.771Z,3.03
2023-04-04T12:24:37.936Z,2.72
2023-04-04T12:27:07.093Z,2.85
2023-04-04T12:29:37.748Z,3.75
2023-04-04T12:32:07.533Z,2.75
2023-04-04T12:37:04.321Z,3.42
2023-04-04T12:39:32.212Z,3.08
2023-04-04T12:42:03.500Z,3.08
2023-04-04T12:44:32.625Z,3.10
2023-04-04T12:47:01.587Z,2.80
2023-04-04T12:49:31.159Z,3.10
2023-04-04T12:52:03.964Z,3.35
2023-04-04T12:54:34.024Z,3.25
2023-04-04T12:57:05.857Z,3.60
2023-04-04T12:59:34.988Z,3.47
2023-04-04T13:02:03.226Z,3.30
2023-04-04T13:04:31.379Z,3.20
2023-04-04T13:07:00.421Z,3.00
2023-04-04T13:09:28.427Z,3.30
2023-04-04T13:12:02.147Z,3.03
2023-04-04T13:14:57.569Z,3.33
2023-04-04T13:17:25.735Z,3.40
2023-04-04T13:19:53.517Z,3.65
2023-04-04T13:22:21.188Z,3.67
2023-04-04T13:24:49.119Z,3.42
2023-04-04T13:27:16.796Z,3.13
2023-04-04T13:29:46.221Z,3.55
2023-04-04T13:32:14.169Z,3.03
2023-04-04T13:34:41.812Z,3.10
2023-04-04T13:37:09.561Z,3.20
2023-04-04T13:39:38.075Z,3.10
2023-04-04T13:42:05.823Z,3.67
2023-04-04T13:44:33.488Z,3.22
2023-04-04T13:47:03.762Z,3.80
2023-04-04T13:49:31.483Z,3.08
2023-04-04T13:52:00.151Z,3.85
2023-04-04T13:54:29.786Z,3.20
2023-04-04T13:56:59.337Z,3.05
2023-04-04T13:59:30.343Z,3.67
2023-04-04T14:01:58.260Z,3.17
2023-04-04T14:04:27.414Z,3.13
2023-04-04T14:06:55.607Z,3.42
2023-04-04T14:09:24.163Z,3.17
2023-04-04T14:11:51.851Z,3.17
2023-04-04T14:14:20.020Z,3.30
2023-04-04T14:16:47.705Z,2.83
2023-04-04T14:19:15.517Z,3.20
2023-04-04T14:21:45.110Z,3.40
2023-04-04T14:24:12.798Z,3.38
2023-04-04T14:26:40.487Z,3.25
2023-04-04T14:29:10.370Z,3.65
2023-04-04T14:31:38.145Z,3.55
2023-04-04T14:34:06.146Z,3.20
2023-04-04T14:36:34.589Z,3.53
2023-04-04T14:39:03.651Z,3.50
2023-04-04T14:41:31.415Z,3.42
2023-04-04T14:43:59.646Z,4.10
2023-04-04T14:46:27.378Z,4.07
2023-04-04T14:48:55.160Z,3.53
2023-04-04T14:51:23.482Z,3.78
2023-04-04T14:53:52.417Z,3.90
2023-04-04T14:56:23.396Z,3.80
2023-04-04T14:58:52.038Z,3.58
2023-04-04T15:01:21.403Z,4.05
2023-04-04T15:03:49.127Z,3.35
2023-04-04T15:06:17.538Z,4.22
2023-04-04T15:08:45.193Z,3.80
2023-04-04T15:11:13.204Z,3.85
2023-04-04T15:13:42.754Z,3.83
2023-04-04T15:16:10.712Z,3.95
2023-04-04T15:18:38.431Z,4.00
2023-04-04T15:21:07.301Z,3.92
2023-04-04T15:23:34.976Z,4.03
2023-04-04T15:26:02.935Z,4.55
2023-04-04T15:28:31.212Z,3.83
2023-04-04T15:31:03.335Z,3.90
2023-04-04T15:33:31.784Z,4.28
2023-04-04T15:35:59.448Z,4.28
2023-04-04T15:38:27.112Z,3.80
2023-04-04T15:40:55.251Z,4.00
2023-04-04T15:43:23.973Z,3.72
2023-04-04T15:45:51.681Z,3.67
2023-04-04T15:48:21.228Z,4.10
2023-04-04T15:50:48.959Z,4.10
2023-04-04T15:53:17.729Z,4.25
2023-04-04T15:55:46.089Z,3.87
2023-04-04T15:58:14.050Z,3.72
2023-04-04T16:03:36.541Z,3.85
2023-04-04T16:06:06.878Z,3.63
2023-04-04T16:08:34.542Z,3.85
2023-04-04T16:11:03.255Z,3.67
2023-04-04T16:13:31.699Z,3.97
2023-04-04T16:15:59.503Z,4.20
2023-04-04T16:18:27.312Z,3.63
2023-04-04T16:20:56.989Z,3.80
2023-04-04T16:25:52.325Z,3.60
2023-04-04T16:28:20.573Z,3.70
2023-04-04T16:30:48.247Z,3.97
2023-04-04T16:33:16.137Z,3.85
2023-04-04T16:35:44.565Z,4.25
2023-04-04T16:38:13.633Z,3.78
2023-04-04T16:40:43.022Z,3.63
2023-04-04T16:43:11.518Z,4.10
2023-04-04T16:45:39.184Z,3.75
2023-04-04T16:48:07.062Z,3.95
2023-04-04T16:50:35.369Z,4.32
2023-04-04T16:53:04.005Z,4.20
2023-04-04T16:55:33.041Z,3.88
2023-04-04T16:58:01.302Z,8.15
2023-04-04T17:00:29.417Z,5.05
2023-04-04T17:02:58.187Z,5.82
2023-04-04T17:05:26.577Z,4.23
2023-04-04T17:07:54.244Z,4.30
2023-04-04T17:10:22.151Z,3.90
2023-04-04T17:12:51.433Z,4.00
2023-04-04T17:15:19.136Z,4.10
2023-04-04T17:17:47.019Z,3.25
2023-04-04T17:20:18.424Z,3.30
2023-04-04T17:22:46.280Z,3.55
2023-04-04T17:25:14.138Z,4.13
2023-04-04T17:27:42.360Z,4.10
2023-04-04T17:30:13.219Z,4.30
2023-04-04T17:32:41.235Z,3.60
2023-04-04T17:35:09.747Z,3.70
2023-04-04T17:37:37.433Z,3.45
2023-04-04T17:40:05.852Z,3.58
2023-04-04T17:42:34.047Z,3.80
2023-04-04T17:45:01.820Z,3.70
2023-04-04T17:47:31.124Z,3.70
2023-04-04T17:49:59.389Z,3.78
2023-04-04T17:52:27.107Z,3.65
2023-04-04T17:54:55.044Z,3.40
2023-04-04T17:57:23.228Z,3.30
2023-04-04T17:59:51.193Z,3.70
2023-04-04T18:02:19.471Z,3.92
2023-04-04T18:04:49.014Z,3.47
2023-04-04T18:07:16.941Z,3.53
2023-04-04T18:09:44.618Z,3.55
2023-04-04T18:12:13.414Z,3.60
2023-04-04T18:14:41.200Z,3.50
2023-04-04T18:17:08.932Z,3.78
2023-04-04T18:19:38.951Z,3.70
2023-04-04T18:22:09.323Z,3.55
2023-04-04T18:24:37.971Z,3.63
2023-04-04T18:27:06.085Z,3.45
2023-04-04T18:29:33.763Z,3.80
2023-04-04T18:32:03.088Z,3.70
2023-04-04T18:34:30.992Z,3.53
2023-04-04T18:36:58.712Z,3.50
2023-04-04T18:39:28.495Z,3.45
2023-04-04T18:41:56.670Z,3.47
2023-04-04T18:44:24.423Z,4.85
2023-04-04T18:46:52.635Z,5.10
2023-04-04T18:49:20.336Z,4.97
2023-04-04T18:51:48.340Z,4.47
2023-04-04T18:54:16.764Z,4.38
2023-04-04T18:56:45.826Z,3.53
2023-04-04T18:59:13.783Z,3.55
2023-04-04T19:01:42.214Z,3.33
2023-04-04T19:04:11.462Z,3.65
2023-04-04T19:06:41.398Z,3.22
2023-04-04T19:09:11.520Z,3.53
2023-04-04T19:11:39.572Z,3.22
2023-04-04T19:14:09.405Z,3.30
2023-04-04T19:16:37.798Z,3.20
2023-04-04T19:19:05.861Z,3.33
2023-04-04T19:21:33.562Z,3.08
2023-04-04T19:24:01.950Z,3.05
2023-04-04T19:26:29.613Z,3.20
2023-04-04T19:28:57.308Z,3.03
2023-04-04T19:31:30.404Z,3.05
2023-04-04T19:33:58.234Z,3.28
2023-04-04T19:36:26.251Z,3.20
2023-04-04T19:38:55.244Z,3.22
2023-04-04T19:41:34.409Z,3.25
2023-04-04T19:44:02.679Z,2.88
2023-04-04T19:46:33.851Z,3.00
2023-04-04T19:49:03.452Z,3.13
2023-04-04T19:51:40.090Z,2.90
2023-04-04T19:54:12.486Z,3.30
2023-04-04T19:56:40.165Z,3.10
2023-04-04T19:59:10.550Z,3.08
2023-04-04T20:01:47.299Z,3.22
2023-04-04T20:04:21.663Z,3.25
2023-04-04T20:06:49.885Z,2.70
2023-04-04T20:09:34.810Z,2.80
2023-04-04T20:12:03.016Z,3.30
2023-04-04T20:14:30.883Z,3.33
2023-04-04T20:16:59.935Z,3.15
2023-04-04T20:19:30.107Z,3.55
2023-04-04T20:21:57.843Z,3.08
2023-04-04T20:24:25.823Z,3.10
2023-04-04T20:26:59.296Z,3.20
2023-04-04T20:29:28.630Z,3.10
2023-04-04T20:31:57.582Z,3.22
2023-04-04T20:34:33.218Z,3.55
2023-04-04T20:37:02.868Z,3.20
2023-04-04T20:42:17.658Z,3.55
2023-04-04T20:44:45.550Z,3.85
2023-04-04T20:47:38.336Z,4.03
2023-04-04T20:50:41.630Z,3.63
2023-04-04T20:53:18.263Z,3.83
2023-04-04T20:55:46.242Z,3.65
2023-04-04T20:58:26.126Z,3.33
2023-04-04T21:00:54.133Z,3.47
2023-04-04T21:03:31.051Z,3.63
2023-04-04T21:06:02.599Z,3.97
2023-04-04T21:08:48.244Z,3.83
2023-04-04T21:11:24.313Z,3.50
2023-04-04T21:13:52.122Z,3.60
2023-04-04T21:16:23.680Z,3.22
2023-04-04T21:18:57.751Z,3.20
2023-04-04T21:21:26.549Z,3.42
2023-04-04T21:23:57.784Z,3.38
2023-04-04T21:26:31.218Z,3.80
2023-04-04T21:29:01.060Z,3.28
2023-04-04T21:31:35.465Z,3.35
2023-04-04T21:34:09.777Z,3.45
2023-04-04T21:36:37.770Z,3.50
2023-04-04T21:39:12.094Z,3.45
2023-04-04T21:41:40.486Z,3.70
2023-04-04T21:44:09.616Z,3.97
2023-04-04T21:46:39.773Z,3.63
2023-04-04T21:49:08.941Z,3.63
2023-04-04T21:51:37.371Z,4.00
2023-04-04T21:54:06.114Z,3.85
2023-04-04T21:56:35.404Z,3.77
2023-04-04T21:59:04.637Z,3.60
2023-04-04T22:01:33.346Z,3.78
2023-04-04T22:04:01.069Z,3.83
2023-04-04T22:06:30.708Z,3.90
2023-04-04T22:11:28.623Z,3.33
2023-04-04T22:14:07.842Z,3.90
2023-04-04T22:16:39.812Z,3.55
2023-04-04T22:19:11.940Z,4.07
2023-04-04T22:21:47.656Z,3.70
2023-04-04T22:24:18.840Z,3.83
2023-04-04T22:26:47.660Z,3.63
2023-04-04T22:29:16.725Z,3.83
2023-04-04T22:31:44.983Z,3.85
2023-04-04T22:34:15.186Z,3.55
2023-04-04T22:36:43.756Z,4.18
2023-04-04T22:39:12.536Z,4.40
2023-04-04T22:41:40.237Z,3.90
2023-04-04T22:44:07.938Z,4.63
2023-04-04T22:46:37.521Z,4.25
2023-04-04T22:49:08.804Z,4.57
2023-04-04T22:51:44.117Z,3.90
2023-04-04T22:54:14.234Z,4.03
2023-04-04T22:56:42.243Z,3.95
2023-04-04T22:59:10.540Z,4.30
2023-04-04T23:01:39.975Z,4.55
2023-04-04T23:04:07.963Z,4.15
2023-04-04T23:06:36.724Z,4.10
2023-04-04T23:09:04.493Z,4.27
2023-04-04T23:11:32.237Z,4.10
2023-04-04T23:14:00.929Z,3.67
2023-04-04T23:16:28.824Z,4.57
2023-04-04T23:18:58.093Z,4.20
2023-04-04T23:21:26.590Z,4.10
2023-04-04T23:23:54.252Z,4.25
2023-04-04T23:26:21.926Z,4.18
2023-04-04T23:28:50.340Z,4.30
2023-04-04T23:31:18.232Z,3.85
2023-04-04T23:33:46.158Z,4.45
2023-04-04T23:36:16.141Z,3.88
2023-04-04T23:38:43.823Z,4.43
2023-04-04T23:41:12.461Z,4.18
2023-04-04T23:43:43.228Z,4.70
2023-04-04T23:46:14.437Z,3.53
2023-04-04T23:48:42.405Z,4.07
2023-04-04T23:51:11.578Z,4.10
2023-04-04T23:53:40.807Z,3.97
2023-04-04T23:56:09.004Z,4.35
2023-04-04T23:58:38.574Z,4.07
